sensor_id;sensor_type;location;lat;lon;timestamp;P1;durP1;ratioP1;P2;durP2;ratioP2
6185;SDS011;3126;52.738;8.316;2023-02-17T00:03:01;25.50;;;16.98;;
6185;SDS011;3126;52.738;8.316;2023-02-17T00:08:02;27.35;;;17.73;;
6185;SDS011;3126;52.738;8.316;2023-02-17T00:13:02;25.27;;;17.02;;
6185;SDS011;3126;52.738;8.316;2023-02-17T00:18:03;22.73;;;15.10;;
6185;SDS011;3126;52.738;8.316;2023-02-17T00:23:04;26.80;;;17.48;;
6185;SDS011;3126;52.738;8.316;2023-02-17T00:28:04;24.65;;;16.77;;
6185;SDS011;3126;52.738;8.316;2023-02-17T00:33:05;27.20;;;17.73;;
6185;SDS011;3126;52.738;8.316;2023-02-17T00:38:06;27.00;;;17.27;;
6185;SDS011;3126;52.738;8.316;2023-02-17T00:43:06;26.13;;;17.73;;
6185;SDS011;3126;52.738;8.316;2023-02-17T00:48:07;27.90;;;18.05;;
6185;SDS011;3126;52.738;8.316;2023-02-17T00:53:07;26.52;;;17.42;;
6185;SDS011;3126;52.738;8.316;2023-02-17T00:58:08;18.08;;;11.38;;
6185;SDS011;3126;52.738;8.316;2023-02-17T01:03:09;24.25;;;15.65;;
6185;SDS011;3126;52.738;8.316;2023-02-17T01:08:10;24.13;;;15.40;;
6185;SDS011;3126;52.738;8.316;2023-02-17T01:13:12;25.08;;;16.33;;
6185;SDS011;3126;52.738;8.316;2023-02-17T01:18:14;25.08;;;16.90;;
6185;SDS011;3126;52.738;8.316;2023-02-17T01:23:16;27.67;;;18.42;;
6185;SDS011;3126;52.738;8.316;2023-02-17T01:28:19;23.23;;;15.73;;
6185;SDS011;3126;52.738;8.316;2023-02-17T01:33:20;28.27;;;17.85;;
6185;SDS011;3126;52.738;8.316;2023-02-17T01:38:21;23.48;;;16.23;;
6185;SDS011;3126;52.738;8.316;2023-02-17T01:43:22;29.65;;;17.10;;
6185;SDS011;3126;52.738;8.316;2023-02-17T01:48:30;29.38;;;17.05;;
6185;SDS011;3126;52.738;8.316;2023-02-17T01:58:43;19.95;;;13.38;;
6185;SDS011;3126;52.738;8.316;2023-02-17T02:03:45;22.13;;;14.95;;
6185;SDS011;3126;52.738;8.316;2023-02-17T02:09:09;26.80;;;16.00;;
6185;SDS011;3126;52.738;8.316;2023-02-17T02:14:12;26.60;;;17.45;;
6185;SDS011;3126;52.738;8.316;2023-02-17T02:20:01;22.30;;;15.30;;
6185;SDS011;3126;52.738;8.316;2023-02-17T02:24:57;26.15;;;16.73;;
6185;SDS011;3126;52.738;8.316;2023-02-17T02:40:02;24.48;;;15.18;;
6185;SDS011;3126;52.738;8.316;2023-02-17T02:45:06;26.88;;;15.10;;
6185;SDS011;3126;52.738;8.316;2023-02-17T02:50:09;27.25;;;15.15;;
6185;SDS011;3126;52.738;8.316;2023-02-17T03:05:51;20.20;;;11.70;;
6185;SDS011;3126;52.738;8.316;2023-02-17T03:10:58;20.67;;;13.07;;
6185;SDS011;3126;52.738;8.316;2023-02-17T03:16:00;21.50;;;13.27;;
6185;SDS011;3126;52.738;8.316;2023-02-17T03:21:02;22.02;;;14.23;;
6185;SDS011;3126;52.738;8.316;2023-02-17T03:26:09;20.75;;;13.02;;
6185;SDS011;3126;52.738;8.316;2023-02-17T03:31:09;22.05;;;13.13;;
6185;SDS011;3126;52.738;8.316;2023-02-17T03:36:10;21.35;;;13.38;;
6185;SDS011;3126;52.738;8.316;2023-02-17T03:41:11;24.40;;;14.80;;
6185;SDS011;3126;52.738;8.316;2023-02-17T03:46:12;22.95;;;14.43;;
6185;SDS011;3126;52.738;8.316;2023-02-17T03:51:18;24.73;;;15.70;;
6185;SDS011;3126;52.738;8.316;2023-02-17T03:56:19;27.20;;;15.90;;
6185;SDS011;3126;52.738;8.316;2023-02-17T04:01:20;30.05;;;16.67;;
6185;SDS011;3126;52.738;8.316;2023-02-17T04:06:21;26.10;;;15.63;;
6185;SDS011;3126;52.738;8.316;2023-02-17T04:11:21;27.50;;;16.05;;
6185;SDS011;3126;52.738;8.316;2023-02-17T04:16:22;27.50;;;16.50;;
6185;SDS011;3126;52.738;8.316;2023-02-17T04:21:23;28.45;;;16.60;;
6185;SDS011;3126;52.738;8.316;2023-02-17T04:26:24;30.25;;;18.33;;
6185;SDS011;3126;52.738;8.316;2023-02-17T04:31:25;27.17;;;16.02;;
6185;SDS011;3126;52.738;8.316;2023-02-17T04:36:26;27.35;;;15.93;;
6185;SDS011;3126;52.738;8.316;2023-02-17T04:41:27;24.23;;;14.10;;
6185;SDS011;3126;52.738;8.316;2023-02-17T04:46:28;24.08;;;15.13;;
6185;SDS011;3126;52.738;8.316;2023-02-17T04:51:29;31.40;;;16.08;;
6185;SDS011;3126;52.738;8.316;2023-02-17T04:56:29;23.98;;;14.75;;
6185;SDS011;3126;52.738;8.316;2023-02-17T05:01:30;23.23;;;15.00;;
6185;SDS011;3126;52.738;8.316;2023-02-17T05:06:30;24.15;;;14.20;;
6185;SDS011;3126;52.738;8.316;2023-02-17T05:11:31;21.15;;;13.07;;
6185;SDS011;3126;52.738;8.316;2023-02-17T05:16:31;23.42;;;14.50;;
6185;SDS011;3126;52.738;8.316;2023-02-17T05:21:32;23.00;;;13.70;;
6185;SDS011;3126;52.738;8.316;2023-02-17T05:26:33;21.52;;;13.65;;
6185;SDS011;3126;52.738;8.316;2023-02-17T05:31:33;22.42;;;14.50;;
6185;SDS011;3126;52.738;8.316;2023-02-17T05:36:35;20.88;;;13.00;;
6185;SDS011;3126;52.738;8.316;2023-02-17T05:41:35;21.35;;;13.00;;
6185;SDS011;3126;52.738;8.316;2023-02-17T05:46:36;19.75;;;12.60;;
6185;SDS011;3126;52.738;8.316;2023-02-17T05:51:37;20.60;;;12.77;;
6185;SDS011;3126;52.738;8.316;2023-02-17T05:56:38;17.70;;;12.32;;
6185;SDS011;3126;52.738;8.316;2023-02-17T06:01:39;18.95;;;12.15;;
6185;SDS011;3126;52.738;8.316;2023-02-17T06:06:40;20.80;;;12.05;;
6185;SDS011;3126;52.738;8.316;2023-02-17T06:11:41;20.17;;;10.68;;
6185;SDS011;3126;52.738;8.316;2023-02-17T06:16:42;18.30;;;10.90;;
6185;SDS011;3126;52.738;8.316;2023-02-17T06:21:43;18.15;;;10.75;;
6185;SDS011;3126;52.738;8.316;2023-02-17T06:26:44;20.65;;;11.23;;
6185;SDS011;3126;52.738;8.316;2023-02-17T06:31:44;21.02;;;11.45;;
6185;SDS011;3126;52.738;8.316;2023-02-17T06:36:45;17.17;;;10.65;;
6185;SDS011;3126;52.738;8.316;2023-02-17T06:41:45;18.95;;;10.60;;
6185;SDS011;3126;52.738;8.316;2023-02-17T06:46:46;17.27;;;9.10;;
6185;SDS011;3126;52.738;8.316;2023-02-17T06:51:47;19.83;;;12.63;;
6185;SDS011;3126;52.738;8.316;2023-02-17T06:56:48;18.80;;;10.10;;
6185;SDS011;3126;52.738;8.316;2023-02-17T07:01:49;17.83;;;10.68;;
6185;SDS011;3126;52.738;8.316;2023-02-17T07:06:50;16.13;;;10.07;;
6185;SDS011;3126;52.738;8.316;2023-02-17T07:11:51;17.17;;;10.65;;
6185;SDS011;3126;52.738;8.316;2023-02-17T07:16:52;18.42;;;11.32;;
6185;SDS011;3126;52.738;8.316;2023-02-17T07:21:53;16.92;;;9.65;;
6185;SDS011;3126;52.738;8.316;2023-02-17T07:26:54;13.30;;;8.13;;
6185;SDS011;3126;52.738;8.316;2023-02-17T07:31:55;17.92;;;11.13;;
6185;SDS011;3126;52.738;8.316;2023-02-17T07:36:56;14.70;;;9.70;;
6185;SDS011;3126;52.738;8.316;2023-02-17T07:41:57;20.05;;;10.18;;
6185;SDS011;3126;52.738;8.316;2023-02-17T07:46:59;18.55;;;10.80;;
6185;SDS011;3126;52.738;8.316;2023-02-17T07:52:00;20.83;;;11.32;;
6185;SDS011;3126;52.738;8.316;2023-02-17T07:57:01;19.63;;;11.55;;
6185;SDS011;3126;52.738;8.316;2023-02-17T08:02:02;20.88;;;11.70;;
6185;SDS011;3126;52.738;8.316;2023-02-17T08:07:03;15.00;;;8.43;;
6185;SDS011;3126;52.738;8.316;2023-02-17T08:12:04;18.95;;;11.23;;
6185;SDS011;3126;52.738;8.316;2023-02-17T08:17:24;20.50;;;9.68;;
6185;SDS011;3126;52.738;8.316;2023-02-17T08:22:25;19.48;;;10.50;;
6185;SDS011;3126;52.738;8.316;2023-02-17T08:27:26;21.23;;;11.77;;
6185;SDS011;3126;52.738;8.316;2023-02-17T08:32:27;23.02;;;11.88;;
6185;SDS011;3126;52.738;8.316;2023-02-17T08:37:28;19.10;;;10.90;;
6185;SDS011;3126;52.738;8.316;2023-02-17T08:42:31;17.50;;;9.35;;
6185;SDS011;3126;52.738;8.316;2023-02-17T08:47:33;24.85;;;12.15;;
6185;SDS011;3126;52.738;8.316;2023-02-17T08:52:34;22.80;;;11.02;;
6185;SDS011;3126;52.738;8.316;2023-02-17T08:57:35;17.25;;;10.40;;
6185;SDS011;3126;52.738;8.316;2023-02-17T09:02:36;19.50;;;11.77;;
6185;SDS011;3126;52.738;8.316;2023-02-17T09:07:37;22.15;;;12.05;;
6185;SDS011;3126;52.738;8.316;2023-02-17T09:12:38;24.27;;;13.82;;
6185;SDS011;3126;52.738;8.316;2023-02-17T09:17:39;23.00;;;14.13;;
6185;SDS011;3126;52.738;8.316;2023-02-17T09:22:40;23.15;;;12.07;;
6185;SDS011;3126;52.738;8.316;2023-02-17T09:27:41;23.05;;;13.60;;
6185;SDS011;3126;52.738;8.316;2023-02-17T09:32:42;22.92;;;11.65;;
6185;SDS011;3126;52.738;8.316;2023-02-17T09:37:43;20.77;;;12.63;;
6185;SDS011;3126;52.738;8.316;2023-02-17T09:42:45;18.67;;;11.15;;
6185;SDS011;3126;52.738;8.316;2023-02-17T09:47:47;20.85;;;11.13;;
6185;SDS011;3126;52.738;8.316;2023-02-17T09:57:55;21.90;;;12.25;;
6185;SDS011;3126;52.738;8.316;2023-02-17T10:08:08;16.80;;;9.73;;
6185;SDS011;3126;52.738;8.316;2023-02-17T10:13:10;21.67;;;12.20;;
6185;SDS011;3126;52.738;8.316;2023-02-17T10:18:23;17.98;;;9.63;;
6185;SDS011;3126;52.738;8.316;2023-02-17T10:23:26;16.25;;;10.52;;
6185;SDS011;3126;52.738;8.316;2023-02-17T10:33:51;14.30;;;8.98;;
6185;SDS011;3126;52.738;8.316;2023-02-17T10:38:55;14.48;;;8.27;;
6185;SDS011;3126;52.738;8.316;2023-02-17T10:44:00;14.80;;;9.75;;
6185;SDS011;3126;52.738;8.316;2023-02-17T10:49:08;17.98;;;10.10;;
6185;SDS011;3126;52.738;8.316;2023-02-17T10:54:26;16.00;;;9.05;;
6185;SDS011;3126;52.738;8.316;2023-02-17T10:59:30;15.98;;;9.20;;
6185;SDS011;3126;52.738;8.316;2023-02-17T11:04:39;9.52;;;5.70;;
6185;SDS011;3126;52.738;8.316;2023-02-17T11:09:44;11.32;;;6.90;;
6185;SDS011;3126;52.738;8.316;2023-02-17T11:14:47;13.65;;;8.07;;
6185;SDS011;3126;52.738;8.316;2023-02-17T11:19:56;9.52;;;6.47;;
6185;SDS011;3126;52.738;8.316;2023-02-17T11:25:02;12.88;;;7.97;;
6185;SDS011;3126;52.738;8.316;2023-02-17T11:30:04;12.73;;;8.07;;
6185;SDS011;3126;52.738;8.316;2023-02-17T11:35:16;13.02;;;7.63;;
6185;SDS011;3126;52.738;8.316;2023-02-17T11:40:23;13.52;;;8.50;;
6185;SDS011;3126;52.738;8.316;2023-02-17T11:45:25;10.27;;;7.22;;
6185;SDS011;3126;52.738;8.316;2023-02-17T12:06:23;10.88;;;6.93;;
6185;SDS011;3126;52.738;8.316;2023-02-17T12:38:33;15.32;;;6.95;;
6185;SDS011;3126;52.738;8.316;2023-02-17T12:43:46;9.95;;;6.15;;
6185;SDS011;3126;52.738;8.316;2023-02-17T12:48:53;13.55;;;7.28;;
6185;SDS011;3126;52.738;8.316;2023-02-17T12:54:02;15.82;;;10.07;;
6185;SDS011;3126;52.738;8.316;2023-02-17T12:59:10;16.08;;;8.85;;
6185;SDS011;3126;52.738;8.316;2023-02-17T13:04:16;17.45;;;9.88;;
6185;SDS011;3126;52.738;8.316;2023-02-17T13:09:23;14.73;;;9.18;;
6185;SDS011;3126;52.738;8.316;2023-02-17T13:19:29;10.80;;;7.13;;
6185;SDS011;3126;52.738;8.316;2023-02-17T13:24:33;9.27;;;5.45;;
6185;SDS011;3126;52.738;8.316;2023-02-17T13:29:35;10.32;;;7.05;;
6185;SDS011;3126;52.738;8.316;2023-02-17T13:34:39;10.32;;;5.80;;
6185;SDS011;3126;52.738;8.316;2023-02-17T13:39:42;6.00;;;5.22;;
6185;SDS011;3126;52.738;8.316;2023-02-17T13:44:43;9.05;;;5.68;;
6185;SDS011;3126;52.738;8.316;2023-02-17T13:54:52;4.47;;;3.65;;
6185;SDS011;3126;52.738;8.316;2023-02-17T14:00:09;11.55;;;6.18;;
6185;SDS011;3126;52.738;8.316;2023-02-17T14:05:17;7.72;;;4.70;;
6185;SDS011;3126;52.738;8.316;2023-02-17T14:10:21;10.88;;;5.35;;
6185;SDS011;3126;52.738;8.316;2023-02-17T14:15:25;7.50;;;4.60;;
6185;SDS011;3126;52.738;8.316;2023-02-17T14:20:35;4.85;;;4.22;;
6185;SDS011;3126;52.738;8.316;2023-02-17T14:25:37;5.18;;;3.42;;
6185;SDS011;3126;52.738;8.316;2023-02-17T14:30:43;6.03;;;3.58;;
6185;SDS011;3126;52.738;8.316;2023-02-17T14:35:54;7.70;;;3.63;;
6185;SDS011;3126;52.738;8.316;2023-02-17T14:40:57;3.35;;;3.00;;
6185;SDS011;3126;52.738;8.316;2023-02-17T14:45:59;5.03;;;3.45;;
6185;SDS011;3126;52.738;8.316;2023-02-17T14:51:00;7.80;;;3.97;;
6185;SDS011;3126;52.738;8.316;2023-02-17T14:56:02;3.90;;;2.53;;
6185;SDS011;3126;52.738;8.316;2023-02-17T15:01:26;5.55;;;2.60;;
6185;SDS011;3126;52.738;8.316;2023-02-17T15:06:40;6.63;;;3.28;;
6185;SDS011;3126;52.738;8.316;2023-02-17T15:11:43;2.47;;;2.03;;
6185;SDS011;3126;52.738;8.316;2023-02-17T15:16:45;2.55;;;1.83;;
6185;SDS011;3126;52.738;8.316;2023-02-17T15:21:50;7.18;;;4.63;;
6185;SDS011;3126;52.738;8.316;2023-02-17T15:26:51;9.15;;;3.50;;
6185;SDS011;3126;52.738;8.316;2023-02-17T15:31:52;3.30;;;2.47;;
6185;SDS011;3126;52.738;8.316;2023-02-17T15:36:54;7.78;;;2.78;;
6185;SDS011;3126;52.738;8.316;2023-02-17T15:41:55;5.32;;;2.13;;
6185;SDS011;3126;52.738;8.316;2023-02-17T15:46:59;4.70;;;2.70;;
6185;SDS011;3126;52.738;8.316;2023-02-17T15:52:00;5.60;;;2.78;;
6185;SDS011;3126;52.738;8.316;2023-02-17T15:57:01;6.20;;;3.00;;
6185;SDS011;3126;52.738;8.316;2023-02-17T16:02:07;3.58;;;2.58;;
6185;SDS011;3126;52.738;8.316;2023-02-17T16:07:19;5.30;;;2.88;;
6185;SDS011;3126;52.738;8.316;2023-02-17T16:12:19;4.07;;;2.95;;
6185;SDS011;3126;52.738;8.316;2023-02-17T16:17:25;6.70;;;3.00;;
6185;SDS011;3126;52.738;8.316;2023-02-17T16:22:26;3.42;;;1.95;;
6185;SDS011;3126;52.738;8.316;2023-02-17T16:27:29;5.95;;;2.78;;
6185;SDS011;3126;52.738;8.316;2023-02-17T16:32:29;8.73;;;1.90;;
6185;SDS011;3126;52.738;8.316;2023-02-17T16:37:30;7.50;;;1.80;;
6185;SDS011;3126;52.738;8.316;2023-02-17T16:42:30;6.38;;;1.50;;
6185;SDS011;3126;52.738;8.316;2023-02-17T16:47:32;3.80;;;1.08;;
6185;SDS011;3126;52.738;8.316;2023-02-17T16:52:33;3.92;;;0.93;;
6185;SDS011;3126;52.738;8.316;2023-02-17T16:57:33;5.85;;;2.03;;
6185;SDS011;3126;52.738;8.316;2023-02-17T17:02:34;2.30;;;0.90;;
6185;SDS011;3126;52.738;8.316;2023-02-17T17:07:35;7.43;;;0.95;;
6185;SDS011;3126;52.738;8.316;2023-02-17T17:12:37;5.68;;;1.85;;
6185;SDS011;3126;52.738;8.316;2023-02-17T17:17:57;4.20;;;1.17;;
6185;SDS011;3126;52.738;8.316;2023-02-17T17:23:10;4.95;;;1.58;;
6185;SDS011;3126;52.738;8.316;2023-02-17T17:33:13;3.83;;;1.10;;
6185;SDS011;3126;52.738;8.316;2023-02-17T17:38:15;2.22;;;1.40;;
6185;SDS011;3126;52.738;8.316;2023-02-17T17:43:16;5.00;;;0.98;;
6185;SDS011;3126;52.738;8.316;2023-02-17T17:48:19;5.25;;;1.27;;
6185;SDS011;3126;52.738;8.316;2023-02-17T17:53:20;3.78;;;0.82;;
6185;SDS011;3126;52.738;8.316;2023-02-17T17:58:21;7.07;;;1.30;;
6185;SDS011;3126;52.738;8.316;2023-02-17T18:03:22;7.80;;;2.00;;
6185;SDS011;3126;52.738;8.316;2023-02-17T18:08:23;5.20;;;1.45;;
6185;SDS011;3126;52.738;8.316;2023-02-17T18:13:24;6.97;;;1.35;;
6185;SDS011;3126;52.738;8.316;2023-02-17T18:18:25;7.30;;;1.50;;
6185;SDS011;3126;52.738;8.316;2023-02-17T18:23:27;9.90;;;1.75;;
6185;SDS011;3126;52.738;8.316;2023-02-17T18:28:28;9.07;;;2.10;;
6185;SDS011;3126;52.738;8.316;2023-02-17T18:33:28;10.18;;;2.38;;
6185;SDS011;3126;52.738;8.316;2023-02-17T18:38:29;3.60;;;1.33;;
6185;SDS011;3126;52.738;8.316;2023-02-17T18:43:30;8.82;;;1.73;;
6185;SDS011;3126;52.738;8.316;2023-02-17T18:48:31;5.00;;;1.45;;
6185;SDS011;3126;52.738;8.316;2023-02-17T18:53:32;5.70;;;1.88;;
6185;SDS011;3126;52.738;8.316;2023-02-17T18:58:33;7.70;;;2.35;;
6185;SDS011;3126;52.738;8.316;2023-02-17T19:03:35;4.20;;;1.67;;
6185;SDS011;3126;52.738;8.316;2023-02-17T19:08:36;11.93;;;2.47;;
6185;SDS011;3126;52.738;8.316;2023-02-17T19:13:37;5.38;;;2.25;;
6185;SDS011;3126;52.738;8.316;2023-02-17T19:18:39;12.10;;;2.08;;
6185;SDS011;3126;52.738;8.316;2023-02-17T19:23:40;4.05;;;1.58;;
6185;SDS011;3126;52.738;8.316;2023-02-17T19:28:42;9.95;;;2.28;;
6185;SDS011;3126;52.738;8.316;2023-02-17T19:33:43;7.75;;;2.25;;
6185;SDS011;3126;52.738;8.316;2023-02-17T19:38:45;5.03;;;1.00;;
6185;SDS011;3126;52.738;8.316;2023-02-17T19:43:47;10.52;;;2.08;;
6185;SDS011;3126;52.738;8.316;2023-02-17T19:48:48;7.45;;;1.40;;
6185;SDS011;3126;52.738;8.316;2023-02-17T19:53:49;7.75;;;1.85;;
6185;SDS011;3126;52.738;8.316;2023-02-17T19:58:50;13.30;;;9.77;;
6185;SDS011;3126;52.738;8.316;2023-02-17T20:03:52;9.02;;;2.35;;
6185;SDS011;3126;52.738;8.316;2023-02-17T20:08:55;5.68;;;1.98;;
6185;SDS011;3126;52.738;8.316;2023-02-17T20:13:57;6.57;;;1.50;;
6185;SDS011;3126;52.738;8.316;2023-02-17T20:18:59;7.35;;;1.73;;
6185;SDS011;3126;52.738;8.316;2023-02-17T20:24:00;7.72;;;1.50;;
6185;SDS011;3126;52.738;8.316;2023-02-17T20:29:02;9.20;;;1.65;;
6185;SDS011;3126;52.738;8.316;2023-02-17T20:34:04;12.00;;;2.30;;
6185;SDS011;3126;52.738;8.316;2023-02-17T20:39:05;7.22;;;2.13;;
6185;SDS011;3126;52.738;8.316;2023-02-17T20:44:08;5.22;;;1.67;;
6185;SDS011;3126;52.738;8.316;2023-02-17T20:49:10;6.63;;;1.83;;
6185;SDS011;3126;52.738;8.316;2023-02-17T20:54:11;10.02;;;2.42;;
6185;SDS011;3126;52.738;8.316;2023-02-17T20:59:13;5.40;;;1.90;;
6185;SDS011;3126;52.738;8.316;2023-02-17T21:04:14;6.07;;;1.65;;
6185;SDS011;3126;52.738;8.316;2023-02-17T21:09:16;7.80;;;1.65;;
6185;SDS011;3126;52.738;8.316;2023-02-17T21:14:17;8.20;;;2.15;;
6185;SDS011;3126;52.738;8.316;2023-02-17T21:19:18;8.63;;;2.20;;
6185;SDS011;3126;52.738;8.316;2023-02-17T21:24:19;9.60;;;1.75;;
6185;SDS011;3126;52.738;8.316;2023-02-17T21:29:20;5.82;;;1.40;;
6185;SDS011;3126;52.738;8.316;2023-02-17T21:34:21;8.88;;;2.72;;
6185;SDS011;3126;52.738;8.316;2023-02-17T21:39:22;7.63;;;1.98;;
6185;SDS011;3126;52.738;8.316;2023-02-17T21:44:23;7.18;;;1.42;;
6185;SDS011;3126;52.738;8.316;2023-02-17T21:49:43;6.53;;;2.03;;
6185;SDS011;3126;52.738;8.316;2023-02-17T21:54:45;5.18;;;1.38;;
6185;SDS011;3126;52.738;8.316;2023-02-17T21:59:46;6.53;;;1.35;;
6185;SDS011;3126;52.738;8.316;2023-02-17T22:04:47;7.47;;;1.67;;
6185;SDS011;3126;52.738;8.316;2023-02-17T22:09:48;3.92;;;1.60;;
6185;SDS011;3126;52.738;8.316;2023-02-17T22:14:49;12.93;;;2.40;;
6185;SDS011;3126;52.738;8.316;2023-02-17T22:19:50;9.38;;;2.33;;
6185;SDS011;3126;52.738;8.316;2023-02-17T22:24:51;5.85;;;1.83;;
6185;SDS011;3126;52.738;8.316;2023-02-17T22:29:53;11.13;;;2.60;;
6185;SDS011;3126;52.738;8.316;2023-02-17T22:34:55;12.20;;;2.50;;
6185;SDS011;3126;52.738;8.316;2023-02-17T22:39:56;10.15;;;1.95;;
6185;SDS011;3126;52.738;8.316;2023-02-17T22:44:57;10.60;;;1.70;;
6185;SDS011;3126;52.738;8.316;2023-02-17T22:49:58;8.45;;;2.67;;
6185;SDS011;3126;52.738;8.316;2023-02-17T22:54:59;4.88;;;1.55;;
6185;SDS011;3126;52.738;8.316;2023-02-17T23:00:00;9.43;;;2.67;;
6185;SDS011;3126;52.738;8.316;2023-02-17T23:05:01;14.27;;;3.45;;
6185;SDS011;3126;52.738;8.316;2023-02-17T23:10:02;3.08;;;1.73;;
6185;SDS011;3126;52.738;8.316;2023-02-17T23:15:03;8.02;;;1.77;;
6185;SDS011;3126;52.738;8.316;2023-02-17T23:20:04;10.18;;;2.25;;
6185;SDS011;3126;52.738;8.316;2023-02-17T23:25:06;7.30;;;1.77;;
6185;SDS011;3126;52.738;8.316;2023-02-17T23:30:07;8.80;;;1.77;;
6185;SDS011;3126;52.738;8.316;2023-02-17T23:35:09;8.02;;;1.65;;
6185;SDS011;3126;52.738;8.316;2023-02-17T23:40:10;6.05;;;2.08;;
6185;SDS011;3126;52.738;8.316;2023-02-17T23:45:11;5.93;;;1.30;;
6185;SDS011;3126;52.738;8.316;2023-02-17T23:50:12;6.53;;;1.58;;
6185;SDS011;3126;52.738;8.316;2023-02-17T23:55:13;9.50;;;1.88;;
